Time;durP1;ratioP1;P1;durP2;ratioP2;P2;SDS_P1;SDS_P2;PMS_P1;PMS_P2;Temp;Humidity;BMP_temperature;BMP_pressure;BME280_temperature;BME280_humidity;BME280_pressure;Samples;Min_cycle;Max_cycle;Signal;HPM_P1;HPM_P2
2023/06/10 00:01:31;;;;;;;3.90;3.13;;;27.40;45.60;;;;;;5078728;28;20048;-78
2023/06/10 00:03:57;;;;;;;2.97;2.58;;;27.40;45.60;;;;;;5094780;28;20480;-78
2023/06/10 00:06:24;;;;;;;3.80;2.70;;;27.40;45.70;;;;;;5077773;28;20400;-78
2023/06/10 00:08:51;;;;;;;3.63;2.97;;;27.30;45.60;;;;;;5095886;28;20162;-78
2023/06/10 00:11:17;;;;;;;3.47;2.83;;;27.30;45.60;;;;;;5045345;28;20062;-79
2023/06/10 00:13:43;;;;;;;3.60;2.92;;;27.30;45.70;;;;;;5061727;28;20473;-78
2023/06/10 00:16:08;;;;;;;3.33;2.60;;;27.20;45.70;;;;;;5096217;28;20032;-79
2023/06/10 00:18:36;;;;;;;3.65;2.85;;;27.20;45.70;;;;;;5094334;28;20028;-79
2023/06/10 00:21:04;;;;;;;3.90;3.00;;;27.20;45.70;;;;;;5079741;28;20032;-79
2023/06/10 00:23:37;;;;;;;3.75;2.92;;;27.20;45.80;;;;;;5078322;28;20032;-80
2023/06/10 00:26:04;;;;;;;3.53;3.05;;;27.10;45.70;;;;;;5079145;28;20086;-78
2023/06/10 00:28:30;;;;;;;3.35;2.67;;;27.10;45.80;;;;;;5094146;28;20079;-77
2023/06/10 00:30:57;;;;;;;3.50;2.80;;;27.10;45.80;;;;;;5077543;28;20493;-78
2023/06/10 00:33:23;;;;;;;3.53;2.88;;;27.10;45.90;;;;;;5060971;28;20032;-78
2023/06/10 00:35:48;;;;;;;3.40;2.90;;;27.00;45.80;;;;;;5077798;28;20090;-77
2023/06/10 00:38:14;;;;;;;3.53;2.83;;;27.00;45.90;;;;;;5061076;28;20028;-78
2023/06/10 00:40:42;;;;;;;3.50;2.90;;;26.90;45.80;;;;;;5077220;28;20048;-79
2023/06/10 00:43:08;;;;;;;4.13;3.20;;;26.90;45.90;;;;;;5060778;28;20047;-76
2023/06/10 00:45:34;;;;;;;3.38;2.67;;;26.90;45.90;;;;;;5076987;28;20115;-77
2023/06/10 00:48:01;;;;;;;4.25;3.08;;;26.90;45.90;;;;;;5094178;28;20043;-76
2023/06/10 00:50:27;;;;;;;3.08;2.63;;;26.80;45.80;;;;;;5094080;28;20116;-78
2023/06/10 00:52:55;;;;;;;4.75;3.03;;;26.80;45.90;;;;;;5094152;28;20028;-78
2023/06/10 00:55:21;;;;;;;5.00;3.10;;;26.80;45.90;;;;;;5077038;28;20464;-79
2023/06/10 00:57:48;;;;;;;3.42;2.88;;;26.80;45.90;;;;;;5093685;28;20051;-78
2023/06/10 01:00:15;;;;;;;3.72;2.78;;;26.70;46.00;;;;;;5060302;28;20465;-80
2023/06/10 01:02:41;;;;;;;3.65;3.05;;;26.70;46.00;;;;;;5077420;28;20323;-78
2023/06/10 01:05:09;;;;;;;3.53;2.67;;;26.70;46.00;;;;;;5077047;28;20020;-79
2023/06/10 01:07:49;;;;;;;4.13;2.90;;;26.60;45.90;;;;;;5094495;28;20036;-80
2023/06/10 01:10:40;;;;;;;3.55;2.80;;;26.60;46.00;;;;;;5093451;28;20028;-79
2023/06/10 01:13:11;;;;;;;3.05;2.50;;;26.60;46.00;;;;;;5093846;28;20024;-81
2023/06/10 01:15:38;;;;;;;3.65;2.85;;;26.50;46.00;;;;;;5093541;28;20032;-80
2023/06/10 01:18:10;;;;;;;3.20;2.67;;;26.50;46.00;;;;;;5093851;28;20024;-78
2023/06/10 01:20:40;;;;;;;3.55;2.72;;;26.50;46.00;;;;;;5076569;28;20516;-79
2023/06/10 01:23:06;;;;;;;3.05;2.40;;;26.50;46.10;;;;;;5076852;28;20111;-79
2023/06/10 01:25:36;;;;;;;3.85;3.03;;;26.50;46.10;;;;;;5076439;28;20041;-80
2023/06/10 01:28:21;;;;;;;3.78;3.05;;;26.40;46.10;;;;;;5076731;28;20067;-77
2023/06/10 01:31:37;;;;;;;3.60;2.90;;;26.40;46.10;;;;;;5094151;28;20032;-76
2023/06/10 01:34:08;;;;;;;3.20;2.58;;;26.30;46.10;;;;;;5055249;28;20024;-77
2023/06/10 01:36:36;;;;;;;3.53;2.53;;;26.30;46.10;;;;;;5055304;28;20033;-79
2023/06/10 01:39:04;;;;;;;3.45;2.67;;;26.30;46.20;;;;;;5076294;28;20048;-78
2023/06/10 01:41:30;;;;;;;4.03;2.78;;;26.20;46.10;;;;;;5092543;28;20055;-78
2023/06/10 01:43:56;;;;;;;5.55;2.97;;;26.20;46.10;;;;;;5076213;28;20039;-77
2023/06/10 01:46:22;;;;;;;3.63;3.00;;;26.10;46.10;;;;;;5093580;28;20115;-77
2023/06/10 01:48:48;;;;;;;3.78;2.30;;;26.10;46.10;;;;;;5094202;28;20032;-77
2023/06/10 01:51:15;;;;;;;3.72;2.80;;;26.10;46.10;;;;;;5092513;28;20038;-79
2023/06/10 01:53:41;;;;;;;3.35;2.67;;;26.10;46.10;;;;;;5075783;28;20028;-78
2023/06/10 01:56:06;;;;;;;4.05;2.65;;;26.10;46.80;;;;;;5075581;28;20396;-77
2023/06/10 01:58:32;;;;;;;3.88;2.88;;;26.00;46.10;;;;;;5075835;28;20446;-77
2023/06/10 02:00:58;;;;;;;3.63;2.80;;;26.00;46.20;;;;;;5092543;28;20047;-77
2023/06/10 02:03:24;;;;;;;4.13;3.00;;;26.00;46.20;;;;;;5075801;28;20123;-79
2023/06/10 02:05:49;;;;;;;3.60;2.80;;;25.90;46.10;;;;;;5042445;28;20036;-79
2023/06/10 02:08:15;;;;;;;3.13;2.78;;;25.90;46.10;;;;;;5093245;28;20028;-79
2023/06/10 02:10:41;;;;;;;3.63;2.78;;;25.90;46.20;;;;;;5093014;28;20036;-79
2023/06/10 02:13:07;;;;;;;4.53;2.72;;;25.90;46.20;;;;;;5076584;28;20031;-78
2023/06/10 02:15:33;;;;;;;4.03;3.10;;;25.80;46.20;;;;;;5092477;28;20059;-78
2023/06/10 02:18:00;;;;;;;3.55;2.63;;;25.80;46.20;;;;;;5092227;28;20105;-77
2023/06/10 02:20:26;;;;;;;4.10;3.10;;;25.70;46.20;;;;;;5075645;28;20032;-79
2023/06/10 02:22:52;;;;;;;3.78;2.83;;;25.70;46.20;;;;;;5092174;28;20387;-79
2023/06/10 02:25:18;;;;;;;3.72;2.70;;;25.70;46.30;;;;;;5075200;28;20032;-77
2023/06/10 02:27:43;;;;;;;4.30;2.92;;;25.70;46.30;;;;;;5075297;28;20039;-77
2023/06/10 02:30:10;;;;;;;3.42;2.67;;;25.60;46.20;;;;;;5075393;28;20039;-78
2023/06/10 02:32:36;;;;;;;3.45;2.63;;;25.60;46.20;;;;;;5092788;28;20148;-79
2023/06/10 02:35:02;;;;;;;3.78;2.72;;;25.60;46.20;;;;;;5075339;28;20039;-76
2023/06/10 02:37:29;;;;;;;2.70;2.33;;;25.50;46.20;;;;;;5075966;28;20104;-77
2023/06/10 02:39:56;;;;;;;4.25;3.22;;;25.50;46.20;;;;;;5058759;28;20071;-77
2023/06/10 02:42:22;;;;;;;3.88;2.67;;;25.50;46.20;;;;;;5075409;28;20541;-78
2023/06/10 02:44:49;;;;;;;3.78;2.90;;;25.50;46.30;;;;;;5076136;28;20033;-78
2023/06/10 02:47:23;;;;;;;3.53;2.63;;;25.40;46.30;;;;;;5077237;28;20032;-79
2023/06/10 02:49:49;;;;;;;4.30;2.60;;;25.40;46.30;;;;;;5075725;28;20096;-77
2023/06/10 02:52:15;;;;;;;3.97;2.83;;;25.40;46.30;;;;;;5058751;28;20066;-80
2023/06/10 02:54:41;;;;;;;3.78;2.92;;;25.30;46.30;;;;;;5041907;28;20155;-78
2023/06/10 02:57:10;;;;;;;4.35;2.70;;;25.30;46.30;;;;;;5075389;28;20122;-79
2023/06/10 02:59:36;;;;;;;4.05;2.60;;;25.30;46.40;;;;;;5075175;28;20040;-79
2023/06/10 03:02:02;;;;;;;3.83;2.55;;;25.30;46.40;;;;;;5092432;28;20248;-78
2023/06/10 03:04:30;;;;;;;3.65;2.50;;;25.20;46.30;;;;;;5091804;28;20038;-79
2023/06/10 03:07:07;;;;;;;3.97;2.70;;;25.20;46.40;;;;;;5076559;28;20032;-79
2023/06/10 03:09:34;;;;;;;3.47;2.65;;;25.20;46.50;;;;;;5075329;28;20045;-80
2023/06/10 03:12:01;;;;;;;4.20;2.78;;;25.10;46.40;;;;;;5075170;28;20036;-78
2023/06/10 03:14:30;;;;;;;3.63;2.70;;;25.10;46.50;;;;;;5076222;28;20382;-77
2023/06/10 03:16:57;;;;;;;3.47;2.70;;;25.10;46.50;;;;;;5074993;28;20059;-81
2023/06/10 03:19:24;;;;;;;3.08;2.33;;;25.10;46.50;;;;;;5075030;28;20119;-81
2023/06/10 03:22:15;;;;;;;3.90;2.78;;;25.00;46.50;;;;;;5091626;28;20036;-78
2023/06/10 03:24:51;;;;;;;3.13;2.53;;;25.00;47.20;;;;;;5075702;28;20032;-81
2023/06/10 03:27:17;;;;;;;4.13;2.72;;;24.90;46.50;;;;;;5075157;28;20028;-77
2023/06/10 03:29:46;;;;;;;4.43;2.47;;;24.90;46.60;;;;;;5091742;28;20052;-77
2023/06/10 03:32:12;;;;;;;3.42;2.35;;;24.90;46.60;;;;;;5091577;28;20032;-78
2023/06/10 03:34:40;;;;;;;3.63;2.63;;;24.90;46.70;;;;;;5075266;28;20499;-79
2023/06/10 03:37:07;;;;;;;3.95;2.80;;;24.90;46.70;;;;;;5091893;28;20044;-79
2023/06/10 03:39:33;;;;;;;3.80;2.47;;;24.80;46.70;;;;;;5058118;28;20028;-79
2023/06/10 03:41:59;;;;;;;3.58;2.60;;;24.80;46.70;;;;;;5058646;28;20139;-76
2023/06/10 03:44:26;;;;;;;3.03;2.42;;;24.80;46.70;;;;;;5075279;28;20028;-78
2023/06/10 03:46:53;;;;;;;3.42;2.50;;;24.80;46.80;;;;;;5091854;28;20040;-76
2023/06/10 03:49:18;;;;;;;4.78;2.70;;;24.70;46.70;;;;;;5075381;28;20032;-78
2023/06/10 03:51:44;;;;;;;3.80;2.58;;;24.70;46.80;;;;;;5078550;28;20039;-78
2023/06/10 03:54:10;;;;;;;4.65;2.72;;;24.70;46.80;;;;;;5078709;28;20032;-78
2023/06/10 03:56:36;;;;;;;3.75;2.75;;;24.60;46.80;;;;;;5078391;28;20066;-77
2023/06/10 03:59:01;;;;;;;2.97;2.50;;;24.60;46.90;;;;;;5061970;28;20127;-78
2023/06/10 04:01:28;;;;;;;4.13;2.50;;;24.60;46.90;;;;;;5078399;28;20109;-77
2023/06/10 04:03:55;;;;;;;3.83;2.70;;;24.60;47.00;;;;;;5077816;28;20055;-76
2023/06/10 04:06:22;;;;;;;4.78;2.55;;;24.50;46.90;;;;;;5078886;28;20388;-78
2023/06/10 04:08:48;;;;;;;3.35;2.42;;;24.50;47.00;;;;;;5078200;28;20620;-78
2023/06/10 04:11:14;;;;;;;4.03;2.55;;;24.50;47.00;;;;;;5077882;28;20028;-77
2023/06/10 04:13:39;;;;;;;3.45;2.53;;;24.50;47.10;;;;;;5060998;28;20028;-77
2023/06/10 04:16:06;;;;;;;3.88;2.72;;;24.40;47.10;;;;;;5061218;28;20063;-79
2023/06/10 04:18:31;;;;;;;3.63;2.72;;;24.40;47.10;;;;;;5061335;28;20056;-77
2023/06/10 04:21:01;;;;;;;4.18;2.60;;;24.40;47.10;;;;;;5062617;28;20048;-77
2023/06/10 04:23:28;;;;;;;4.65;3.05;;;24.40;47.20;;;;;;5077590;28;20035;-80
2023/06/10 04:25:54;;;;;;;3.72;2.50;;;24.40;47.20;;;;;;5061155;28;20032;-78
2023/06/10 04:28:19;;;;;;;4.35;2.83;;;24.30;47.20;;;;;;5062179;28;20028;-79
2023/06/10 04:30:45;;;;;;;4.13;2.72;;;24.30;47.30;;;;;;5077729;28;20036;-76
2023/06/10 04:33:12;;;;;;;4.03;2.70;;;24.30;47.30;;;;;;5061978;28;20032;-77
2023/06/10 04:35:39;;;;;;;4.22;2.70;;;24.30;47.40;;;;;;5079914;28;20353;-77
2023/06/10 04:38:07;;;;;;;3.70;2.70;;;24.30;47.40;;;;;;5096808;28;20031;-79
2023/06/10 04:40:32;;;;;;;4.57;2.83;;;24.20;47.40;;;;;;5096394;28;20036;-78
2023/06/10 04:42:58;;;;;;;3.85;2.80;;;24.20;47.40;;;;;;5077051;28;20127;-77
2023/06/10 04:45:25;;;;;;;3.75;2.70;;;24.20;47.50;;;;;;5077399;28;20518;-78
2023/06/10 04:47:51;;;;;;;3.60;2.47;;;24.20;47.50;;;;;;5060733;28;20032;-78
2023/06/10 04:50:17;;;;;;;4.57;3.08;;;24.20;47.60;;;;;;5077502;28;20032;-79
2023/06/10 04:52:44;;;;;;;3.85;2.55;;;24.10;47.50;;;;;;5094118;28;20176;-78
2023/06/10 04:55:10;;;;;;;4.30;3.00;;;24.10;47.60;;;;;;5077330;28;20035;-77
2023/06/10 04:57:36;;;;;;;4.15;2.85;;;24.20;47.70;;;;;;5093553;28;20465;-77
2023/06/10 05:00:05;;;;;;;3.78;2.78;;;24.10;47.70;;;;;;5076998;28;20079;-79
2023/06/10 05:02:31;;;;;;;4.20;2.50;;;24.10;47.80;;;;;;5094089;28;20028;-78
2023/06/10 05:04:57;;;;;;;4.78;3.10;;;24.10;47.80;;;;;;5094793;28;20038;-79
2023/06/10 05:07:23;;;;;;;2.88;2.42;;;24.00;47.80;;;;;;5076553;28;20032;-78
2023/06/10 05:09:49;;;;;;;4.15;2.85;;;24.00;47.70;;;;;;5060204;28;20039;-78
2023/06/10 05:12:15;;;;;;;3.83;2.50;;;24.00;47.80;;;;;;5076992;28;20113;-79
2023/06/10 05:14:41;;;;;;;4.25;2.95;;;24.00;47.90;;;;;;5094313;28;20186;-78
2023/06/10 05:17:06;;;;;;;3.88;2.65;;;24.00;48.50;;;;;;5093400;28;20477;-78
2023/06/10 05:19:32;;;;;;;4.32;3.13;;;24.00;48.00;;;;;;5093962;28;20403;-79
2023/06/10 05:21:58;;;;;;;4.15;2.85;;;24.00;48.00;;;;;;5076249;28;20469;-79
2023/06/10 05:24:24;;;;;;;3.38;2.53;;;24.00;48.00;;;;;;5093736;28;20031;-80
2023/06/10 05:26:50;;;;;;;4.05;2.90;;;23.90;48.00;;;;;;5093308;28;20028;-79
2023/06/10 05:29:15;;;;;;;4.35;2.63;;;23.90;48.10;;;;;;5043385;28;20028;-76
2023/06/10 05:31:42;;;;;;;3.92;2.58;;;23.90;48.10;;;;;;5093542;28;20484;-77
2023/06/10 05:34:07;;;;;;;3.78;2.90;;;23.90;48.10;;;;;;5077194;28;20123;-77
2023/06/10 05:36:33;;;;;;;4.70;3.08;;;23.90;48.20;;;;;;5076699;28;20421;-80
2023/06/10 05:38:59;;;;;;;3.80;2.63;;;23.90;48.20;;;;;;5059775;28;20028;-78
2023/06/10 05:41:25;;;;;;;4.38;2.80;;;23.90;48.30;;;;;;5092916;28;20090;-78
2023/06/10 05:43:51;;;;;;;5.15;2.72;;;23.90;48.30;;;;;;5076175;28;20476;-79
2023/06/10 05:46:16;;;;;;;3.97;2.70;;;23.90;48.30;;;;;;5059613;28;20081;-79
2023/06/10 05:48:42;;;;;;;4.63;2.42;;;23.80;48.30;;;;;;5093336;28;20499;-79
2023/06/10 05:51:08;;;;;;;4.05;2.65;;;23.80;48.30;;;;;;5076214;28;20032;-78
2023/06/10 05:53:34;;;;;;;3.10;2.38;;;23.80;48.30;;;;;;5075667;28;20145;-78
2023/06/10 05:55:59;;;;;;;3.95;2.50;;;23.80;48.40;;;;;;5093768;28;20035;-77
2023/06/10 05:58:25;;;;;;;3.95;2.60;;;23.80;48.40;;;;;;5093937;28;20032;-79
2023/06/10 06:00:51;;;;;;;3.15;2.58;;;23.80;48.40;;;;;;5058978;28;20085;-77
2023/06/10 06:03:17;;;;;;;4.70;2.80;;;23.80;48.40;;;;;;5092657;28;20036;-78
2023/06/10 06:05:43;;;;;;;4.05;2.92;;;23.80;48.50;;;;;;5075638;28;20031;-78
2023/06/10 06:08:09;;;;;;;3.45;2.35;;;23.80;48.50;;;;;;5058963;28;20032;-78
2023/06/10 06:10:35;;;;;;;3.63;2.45;;;23.80;48.50;;;;;;5075773;28;20043;-78
2023/06/10 06:13:02;;;;;;;4.60;2.80;;;23.80;48.60;;;;;;5058120;28;20027;-79
2023/06/10 06:15:28;;;;;;;3.63;2.58;;;23.80;48.60;;;;;;5075494;28;20031;-78
2023/06/10 06:17:53;;;;;;;3.00;2.38;;;23.80;48.50;;;;;;5092430;28;20035;-79
2023/06/10 06:20:20;;;;;;;4.30;2.83;;;23.80;48.60;;;;;;5092160;28;20029;-78
2023/06/10 06:22:46;;;;;;;3.95;2.80;;;23.80;48.60;;;;;;5092162;28;20480;-80
2023/06/10 06:25:12;;;;;;;4.50;2.92;;;23.80;48.60;;;;;;5076198;28;20035;-78
2023/06/10 06:27:38;;;;;;;3.53;2.45;;;23.80;48.60;;;;;;5093641;28;20485;-79
2023/06/10 06:30:04;;;;;;;3.00;2.40;;;23.80;48.60;;;;;;5075902;28;20073;-81
2023/06/10 06:32:30;;;;;;;3.70;2.85;;;23.70;48.60;;;;;;5075676;28;20483;-79
2023/06/10 06:34:57;;;;;;;4.43;2.83;;;23.80;48.70;;;;;;5075614;28;20024;-78
2023/06/10 06:37:24;;;;;;;4.00;2.72;;;23.80;48.70;;;;;;5075458;28;20482;-80
2023/06/10 06:39:55;;;;;;;3.47;2.70;;;23.80;48.80;;;;;;5076764;28;20085;-78
2023/06/10 06:42:21;;;;;;;2.92;2.40;;;23.80;48.70;;;;;;5091950;28;20477;-78
2023/06/10 06:45:05;;;;;;;3.63;2.53;;;23.80;48.80;;;;;;5078188;28;20486;-79
2023/06/10 06:47:31;;;;;;;4.03;2.60;;;23.80;48.80;;;;;;5075868;28;20036;-80
2023/06/10 06:49:57;;;;;;;3.42;2.63;;;23.80;48.90;;;;;;5058665;28;20548;-79
2023/06/10 06:52:23;;;;;;;4.43;3.03;;;23.80;48.90;;;;;;5059785;28;20461;-79
2023/06/10 06:54:49;;;;;;;3.78;2.58;;;23.80;49.50;;;;;;5058922;28;20042;-78
2023/06/10 06:57:15;;;;;;;3.85;2.90;;;23.80;48.90;;;;;;5076850;28;20452;-77
2023/06/10 06:59:40;;;;;;;6.78;3.55;;;23.80;49.00;;;;;;5095533;28;20410;-75
2023/06/10 07:02:07;;;;;;;4.30;3.10;;;23.80;49.00;;;;;;5076605;28;20459;-78
2023/06/10 07:04:33;;;;;;;4.22;2.83;;;23.80;49.00;;;;;;5075753;28;20036;-76
2023/06/10 07:06:59;;;;;;;4.50;2.53;;;23.80;49.00;;;;;;5093688;28;20086;-78
2023/06/10 07:09:24;;;;;;;3.95;2.80;;;23.80;49.00;;;;;;5076451;28;20024;-78
2023/06/10 07:11:50;;;;;;;2.95;2.25;;;23.80;49.10;;;;;;5092929;28;20080;-78
2023/06/10 07:14:16;;;;;;;4.05;2.80;;;23.80;49.10;;;;;;5075365;28;20059;-80
2023/06/10 07:16:42;;;;;;;4.53;2.60;;;23.80;49.10;;;;;;5091800;28;20400;-78
2023/06/10 07:19:07;;;;;;;6.80;2.60;;;23.80;49.10;;;;;;5075264;28;20035;-74
2023/06/10 07:21:33;;;;;;;4.15;2.85;;;23.80;49.10;;;;;;5075481;28;20040;-76
2023/06/10 07:23:59;;;;;;;3.10;2.45;;;23.90;49.20;;;;;;5092868;28;20419;-75
2023/06/10 07:26:25;;;;;;;2.88;2.40;;;23.90;49.10;;;;;;5095558;28;20028;-74
2023/06/10 07:28:51;;;;;;;4.05;2.72;;;24.00;49.20;;;;;;5096259;28;20494;-74
2023/06/10 07:31:17;;;;;;;3.35;2.38;;;24.00;49.00;;;;;;5079339;28;20334;-73
2023/06/10 07:33:43;;;;;;;3.85;2.63;;;24.00;49.00;;;;;;5062077;28;20039;-77
2023/06/10 07:36:09;;;;;;;3.65;2.72;;;24.00;49.00;;;;;;5079062;28;20410;-76
2023/06/10 07:38:35;;;;;;;3.58;2.67;;;24.10;49.00;;;;;;5096734;28;20115;-75
2023/06/10 07:41:01;;;;;;;3.60;2.70;;;24.10;48.90;;;;;;5078541;28;20048;-75
2023/06/10 07:43:27;;;;;;;3.90;2.80;;;24.20;48.90;;;;;;5097231;28;20443;-77
2023/06/10 07:45:52;;;;;;;3.28;2.53;;;24.20;48.80;;;;;;5061463;28;20063;-74
2023/06/10 07:48:18;;;;;;;3.50;2.70;;;24.20;48.80;;;;;;5078872;28;20368;-75
2023/06/10 07:50:44;;;;;;;4.13;2.50;;;24.30;48.70;;;;;;5095019;28;20068;-75
2023/06/10 07:53:10;;;;;;;3.30;2.33;;;24.30;48.70;;;;;;5095146;28;20080;-78
2023/06/10 07:55:36;;;;;;;4.32;2.92;;;24.40;48.60;;;;;;5094918;28;20028;-77
2023/06/10 07:58:02;;;;;;;3.85;2.65;;;24.40;48.60;;;;;;5077904;28;20042;-78
2023/06/10 08:00:27;;;;;;;4.50;2.47;;;24.50;48.60;;;;;;5077897;28;20465;-78
2023/06/10 08:02:53;;;;;;;3.03;2.45;;;24.60;48.60;;;;;;5061899;28;20488;-77
2023/06/10 08:05:20;;;;;;;3.22;2.40;;;24.60;48.50;;;;;;5077552;28;20036;-77
2023/06/10 08:07:45;;;;;;;4.07;2.83;;;24.70;48.50;;;;;;5094769;28;20028;-79
2023/06/10 08:10:11;;;;;;;4.25;2.63;;;24.70;48.50;;;;;;5078738;28;20522;-78
2023/06/10 08:12:37;;;;;;;3.25;2.28;;;24.80;48.50;;;;;;5078518;28;20367;-78
2023/06/10 08:15:04;;;;;;;4.00;2.90;;;24.80;48.40;;;;;;5077838;28;20487;-78
2023/06/10 08:17:30;;;;;;;3.58;2.75;;;24.90;48.40;;;;;;5094465;28;20472;-77
2023/06/10 08:19:56;;;;;;;4.35;2.80;;;24.90;48.40;;;;;;5077563;28;20072;-76
2023/06/10 08:22:22;;;;;;;4.00;2.70;;;25.00;48.40;;;;;;5094740;28;20047;-77
2023/06/10 08:24:47;;;;;;;4.60;2.80;;;25.10;48.40;;;;;;5077727;28;20032;-77
2023/06/10 08:27:13;;;;;;;3.80;2.58;;;25.20;48.40;;;;;;5045086;28;20479;-77
2023/06/10 08:29:39;;;;;;;3.80;2.45;;;25.20;48.30;;;;;;5077236;28;20178;-77
2023/06/10 08:32:06;;;;;;;4.28;2.60;;;25.30;48.30;;;;;;5094264;28;20058;-75
2023/06/10 08:34:35;;;;;;;4.43;2.50;;;25.30;48.30;;;;;;5094003;28;20028;-76
2023/06/10 08:37:02;;;;;;;3.78;2.50;;;25.40;48.30;;;;;;5094918;28;20530;-77
2023/06/10 08:39:31;;;;;;;3.65;2.47;;;25.50;48.30;;;;;;5095054;28;20020;-77
2023/06/10 08:42:07;;;;;;;2.80;2.30;;;25.60;48.30;;;;;;5095216;28;20052;-77
2023/06/10 08:44:38;;;;;;;3.75;2.60;;;25.60;48.30;;;;;;5094427;28;20039;-76
2023/06/10 08:47:10;;;;;;;4.00;2.80;;;25.70;48.20;;;;;;5095078;28;20085;-78
2023/06/10 08:49:41;;;;;;;3.33;2.40;;;25.80;48.30;;;;;;5077443;28;20479;-77
2023/06/10 08:52:07;;;;;;;3.70;2.53;;;25.90;48.20;;;;;;5095576;28;20024;-78
2023/06/10 08:54:37;;;;;;;3.78;2.47;;;26.00;48.20;;;;;;5077824;28;20036;-78
2023/06/10 08:57:06;;;;;;;3.83;2.63;;;26.00;48.10;;;;;;5094973;28;20039;-76
2023/06/10 08:59:32;;;;;;;4.32;2.67;;;26.10;48.10;;;;;;5077625;28;20034;-75
2023/06/10 09:01:58;;;;;;;5.88;2.70;;;26.20;48.80;;;;;;5093842;28;20032;-77
2023/06/10 09:04:25;;;;;;;3.80;2.47;;;26.20;48.10;;;;;;5094578;28;20028;-77
2023/06/10 09:06:52;;;;;;;3.47;2.55;;;26.30;48.10;;;;;;5097076;28;20028;-76
2023/06/10 09:09:20;;;;;;;3.78;2.42;;;26.40;48.10;;;;;;5095944;28;20068;-76
2023/06/10 09:11:46;;;;;;;3.95;2.58;;;26.50;48.10;;;;;;5095898;28;20043;-77
2023/06/10 09:14:16;;;;;;;3.80;2.63;;;26.60;48.20;;;;;;5076853;28;20036;-77
2023/06/10 09:16:42;;;;;;;4.07;2.80;;;26.60;48.10;;;;;;5077374;28;20039;-77
2023/06/10 09:19:08;;;;;;;3.50;2.38;;;26.70;48.10;;;;;;5093577;28;20029;-77
2023/06/10 09:21:35;;;;;;;4.65;2.42;;;26.80;48.10;;;;;;5093344;28;20036;-76
2023/06/10 09:24:01;;;;;;;3.08;2.22;;;26.80;48.10;;;;;;5093465;28;20062;-78
2023/06/10 09:26:32;;;;;;;3.40;2.50;;;27.00;48.10;;;;;;5093446;28;20031;-76
2023/06/10 09:29:05;;;;;;;4.03;2.47;;;27.10;48.10;;;;;;5076840;28;20036;-76
2023/06/10 09:31:34;;;;;;;3.55;2.22;;;27.10;48.10;;;;;;5093153;28;20123;-78
2023/06/10 09:34:14;;;;;;;3.03;2.42;;;27.20;48.10;;;;;;5097394;28;20045;-77
2023/06/10 09:36:41;;;;;;;3.97;2.25;;;27.30;48.00;;;;;;5094951;28;20019;-77
2023/06/10 09:39:15;;;;;;;3.22;2.55;;;27.40;48.00;;;;;;5076369;28;20031;-77
2023/06/10 09:41:41;;;;;;;;;;;27.50;48.00;;;;;;5092922;28;20377;-77
2023/06/10 09:44:25;;;;;;;2.88;2.30;;;27.60;47.80;;;;;;5092923;28;19908;-77
2023/06/10 09:46:54;;;;;;;3.28;2.20;;;27.70;47.80;;;;;;5076043;28;20055;-76
2023/06/10 09:49:20;;;;;;;3.47;2.40;;;27.80;47.70;;;;;;5092914;28;20526;-77
2023/06/10 09:51:50;;;;;;;3.33;2.25;;;27.80;47.70;;;;;;5075983;28;20028;-77
2023/06/10 09:54:16;;;;;;;3.10;2.42;;;27.90;47.80;;;;;;5092947;28;20023;-78
2023/06/10 09:56:42;;;;;;;4.57;2.60;;;28.00;47.80;;;;;;5075731;28;20525;-77
2023/06/10 09:59:08;;;;;;;3.47;2.35;;;28.10;47.90;;;;;;5075750;28;20054;-77
2023/06/10 10:01:35;;;;;;;3.33;2.45;;;28.20;47.80;;;;;;5059775;28;20038;-77
2023/06/10 10:04:03;;;;;;;3.63;2.40;;;28.20;47.70;;;;;;5075755;28;20114;-77
2023/06/10 10:06:30;;;;;;;3.22;2.40;;;28.30;47.60;;;;;;5059679;28;20047;-77
2023/06/10 10:08:56;;;;;;;2.83;2.30;;;28.40;47.60;;;;;;5075902;28;20126;-77
2023/06/10 10:11:23;;;;;;;3.15;2.28;;;28.40;47.60;;;;;;5094144;28;20032;-77
2023/06/10 10:13:51;;;;;;;3.22;2.55;;;28.50;47.50;;;;;;5076348;28;20029;-77
2023/06/10 10:16:33;;;;;;;3.17;2.30;;;28.60;47.50;;;;;;5092181;28;20115;-76
2023/06/10 10:19:12;;;;;;;3.35;2.20;;;28.70;47.50;;;;;;5092604;28;20051;-75
2023/06/10 10:21:50;;;;;;;3.75;2.20;;;28.80;47.50;;;;;;5093413;28;20089;-76
2023/06/10 10:24:20;;;;;;;3.38;2.30;;;28.90;47.50;;;;;;5092635;28;20028;-76
2023/06/10 10:26:48;;;;;;;3.13;2.28;;;29.00;47.40;;;;;;5075648;28;20077;-76
2023/06/10 10:29:40;;;;;;;2.97;2.20;;;29.00;47.30;;;;;;5092272;28;20047;-79
2023/06/10 10:32:08;;;;;;;3.13;2.28;;;29.20;47.10;;;;;;5092774;28;20024;-74
2023/06/10 10:34:53;;;;;;;5.70;2.88;;;29.20;46.60;;;;;;5075963;28;20085;-75
2023/06/10 10:37:21;;;;;;;3.55;2.50;;;29.30;46.20;;;;;;5092265;28;20032;-74
2023/06/10 10:39:47;;;;;;;4.03;2.80;;;29.40;45.70;;;;;;5075291;28;20024;-76
2023/06/10 10:42:14;;;;;;;6.13;3.00;;;29.50;45.50;;;;;;5091809;28;20047;-77
2023/06/10 10:44:40;;;;;;;5.35;3.10;;;29.50;45.30;;;;;;5075340;28;20060;-82
2023/06/10 10:47:09;;;;;;;4.18;2.72;;;29.60;45.00;;;;;;5092220;28;20538;-74
2023/06/10 10:49:36;;;;;;;4.07;2.47;;;29.70;44.50;;;;;;5091974;28;20040;-75
2023/06/10 10:52:05;;;;;;;5.32;2.75;;;29.70;44.20;;;;;;5093453;28;20040;-77
2023/06/10 10:54:37;;;;;;;4.15;2.50;;;29.70;43.70;;;;;;5091814;28;20534;-78
2023/06/10 10:57:10;;;;;;;3.47;2.70;;;29.90;44.20;;;;;;5091846;28;20409;-78
2023/06/10 10:59:59;;;;;;;3.95;2.70;;;29.90;43.50;;;;;;5096988;28;20047;-74
2023/06/10 11:02:31;;;;;;;4.45;2.60;;;30.00;43.30;;;;;;5090910;28;20043;-76
2023/06/10 11:04:57;;;;;;;4.13;2.65;;;30.00;43.10;;;;;;5097074;28;20043;-75
2023/06/10 11:07:25;;;;;;;3.47;2.42;;;30.10;43.00;;;;;;5096303;28;20028;-75
2023/06/10 11:10:11;;;;;;;4.20;3.05;;;30.10;42.50;;;;;;5096059;28;20051;-76
2023/06/10 11:12:46;;;;;;;5.50;3.03;;;30.10;42.40;;;;;;5097327;28;20024;-78
2023/06/10 11:15:20;;;;;;;4.18;2.45;;;30.20;42.50;;;;;;5095590;28;20115;-78
2023/06/10 11:18:20;;;;;;;4.18;2.47;;;30.20;42.20;;;;;;5095728;28;20054;-81
2023/06/10 11:20:48;;;;;;;3.50;2.38;;;30.30;42.30;;;;;;5096750;28;20092;-76
2023/06/10 11:23:38;;;;;;;4.32;2.50;;;30.30;42.00;;;;;;5096644;28;20039;-77
2023/06/10 11:26:26;;;;;;;2.55;2.17;;;30.30;41.70;;;;;;5097632;28;20444;-76
2023/06/10 11:28:52;;;;;;;4.03;2.50;;;30.30;41.70;;;;;;5096134;28;20036;-75
2023/06/10 11:31:32;;;;;;;3.22;2.40;;;30.30;41.50;;;;;;5078574;28;20039;-75
2023/06/10 11:34:00;;;;;;;3.13;2.35;;;30.30;41.20;;;;;;5095803;28;20114;-74
2023/06/10 11:36:27;;;;;;;3.15;2.47;;;30.30;41.10;;;;;;5095237;28;20044;-75
2023/06/10 11:38:58;;;;;;;5.15;2.78;;;30.30;41.00;;;;;;5095600;28;20032;-74
2023/06/10 11:41:26;;;;;;;4.32;2.40;;;30.40;40.70;;;;;;5095430;28;20036;-74
2023/06/10 11:44:02;;;;;;;5.72;2.63;;;30.40;40.50;;;;;;5095332;28;20062;-82
2023/06/10 11:46:28;;;;;;;3.45;2.70;;;30.40;40.40;;;;;;5095464;28;20515;-74
2023/06/10 11:48:56;;;;;;;3.05;2.25;;;30.40;40.40;;;;;;5094990;28;20028;-74
2023/06/10 11:51:24;;;;;;;4.53;2.58;;;30.40;40.10;;;;;;5095198;28;20062;-76
2023/06/10 11:53:50;;;;;;;3.80;2.78;;;30.40;40.10;;;;;;5096116;28;20085;-76
2023/06/10 11:56:24;;;;;;;3.65;2.35;;;30.40;40.10;;;;;;5078432;28;20464;-79
2023/06/10 11:59:05;;;;;;;3.77;2.47;;;30.40;39.90;;;;;;5094817;28;20119;-75
2023/06/10 12:01:34;;;;;;;2.60;2.22;;;30.40;40.00;;;;;;5095175;28;20044;-75
2023/06/10 12:04:02;;;;;;;4.00;2.67;;;30.40;39.90;;;;;;5095222;28;20520;-76
2023/06/10 12:06:41;;;;;;;3.53;2.60;;;30.40;40.00;;;;;;5078358;28;20107;-75
2023/06/10 12:09:20;;;;;;;4.10;2.58;;;30.50;39.90;;;;;;5096476;28;20036;-76
2023/06/10 12:11:57;;;;;;;3.85;2.40;;;30.50;39.70;;;;;;5093843;28;20047;-76
2023/06/10 12:14:58;;;;;;;3.85;2.58;;;30.50;39.60;;;;;;5095918;28;20042;-76
2023/06/10 12:17:36;;;;;;;2.50;2.13;;;30.50;39.60;;;;;;5096275;28;20154;-75
2023/06/10 12:20:08;;;;;;;3.60;2.60;;;30.50;39.70;;;;;;5079626;28;20485;-74
2023/06/10 12:22:43;;;;;;;3.30;2.42;;;30.50;39.50;;;;;;5096604;28;20036;-76
2023/06/10 12:25:10;;;;;;;3.78;2.83;;;30.50;39.30;;;;;;5077812;28;20040;-76
2023/06/10 12:27:37;;;;;;;3.92;2.75;;;30.60;39.40;;;;;;5095872;28;20059;-76
2023/06/10 12:30:05;;;;;;;4.15;2.90;;;30.50;39.30;;;;;;5095440;28;20119;-75
2023/06/10 12:32:41;;;;;;;5.32;2.92;;;30.50;39.30;;;;;;5094466;28;20138;-77
2023/06/10 12:35:08;;;;;;;3.53;2.58;;;30.50;39.40;;;;;;5095571;28;20089;-75
2023/06/10 12:37:34;;;;;;;4.40;2.60;;;30.50;39.50;;;;;;5095282;28;20545;-76
2023/06/10 12:40:02;;;;;;;3.30;2.60;;;30.50;39.30;;;;;;5093901;28;20088;-74
2023/06/10 12:42:30;;;;;;;4.28;2.85;;;30.50;39.30;;;;;;5060955;28;20028;-74
2023/06/10 12:45:00;;;;;;;3.60;2.75;;;30.50;39.20;;;;;;5095972;28;20043;-74
2023/06/10 12:47:34;;;;;;;4.25;3.00;;;30.50;39.00;;;;;;5095428;28;20024;-74
2023/06/10 12:50:04;;;;;;;3.60;2.78;;;30.60;39.10;;;;;;5077950;28;20036;-74
2023/06/10 12:52:30;;;;;;;3.58;2.50;;;30.60;39.00;;;;;;5095911;28;20050;-75
2023/06/10 12:54:56;;;;;;;3.80;2.65;;;30.60;38.80;;;;;;5093763;28;20016;-74